createdAt,value
2018-04-23T00:01:02.240Z,80.60
2018-04-23T00:03:29.815Z,80.60
2018-04-23T00:05:57.396Z,80.90
2018-04-23T00:08:24.944Z,81.00
2018-04-23T00:10:52.515Z,81.00
2018-04-23T00:13:20.061Z,80.60
2018-04-23T00:15:47.611Z,80.50
2018-04-23T00:18:15.182Z,80.70
2018-04-23T00:20:43.524Z,81.30
2018-04-23T00:23:11.069Z,81.20
2018-04-23T00:25:38.751Z,80.80
2018-04-23T00:28:06.318Z,81.40
2018-04-23T00:30:33.871Z,81.50
2018-04-23T00:33:01.475Z,82.00
2018-04-23T00:35:29.048Z,82.00
2018-04-23T00:37:57.403Z,82.50
2018-04-23T00:40:25.010Z,82.10
2018-04-23T00:42:52.623Z,82.00
2018-04-23T00:45:20.192Z,82.40
2018-04-23T00:47:47.792Z,81.60
2018-04-23T00:50:16.109Z,82.30
2018-04-23T00:52:43.765Z,82.30
2018-04-23T00:55:11.313Z,82.70
2018-04-23T00:57:38.933Z,82.60
2018-04-23T01:00:06.431Z,82.50
2018-04-23T01:02:33.981Z,82.60
2018-04-23T01:05:01.564Z,82.40
2018-04-23T01:07:29.181Z,82.30
2018-04-23T01:09:56.762Z,82.30
2018-04-23T01:12:24.378Z,82.40
2018-04-23T01:14:51.995Z,82.80
2018-04-23T01:17:19.612Z,82.80
2018-04-23T01:19:47.247Z,82.60
2018-04-23T01:22:14.795Z,82.30
2018-04-23T01:24:42.373Z,82.40
2018-04-23T01:27:09.944Z,82.50
2018-04-23T01:29:37.605Z,81.80
2018-04-23T01:32:05.931Z,81.80
2018-04-23T01:34:33.490Z,81.60
2018-04-23T01:37:01.021Z,81.50
2018-04-23T01:39:29.407Z,80.50
2018-04-23T01:41:56.968Z,80.50
2018-04-23T01:44:25.366Z,80.40
2018-04-23T01:46:52.871Z,80.30
2018-04-23T01:49:20.503Z,81.10
2018-04-23T01:51:48.037Z,81.30
2018-04-23T01:54:16.424Z,81.20
2018-04-23T01:56:43.956Z,81.20
2018-04-23T01:59:11.568Z,81.60
2018-04-23T02:01:39.122Z,79.90
2018-04-23T02:04:06.645Z,79.40
2018-04-23T02:06:34.197Z,80.00
2018-04-23T02:09:01.747Z,81.00
2018-04-23T02:11:29.376Z,81.60
2018-04-23T02:13:57.048Z,82.10
2018-04-23T02:16:24.661Z,82.40
2018-04-23T02:18:52.983Z,82.90
2018-04-23T02:21:20.613Z,82.70
2018-04-23T02:23:48.265Z,82.90
2018-04-23T02:26:16.649Z,82.50
2018-04-23T02:28:44.188Z,82.40
2018-04-23T02:31:12.588Z,82.90
2018-04-23T02:33:40.190Z,82.80
2018-04-23T02:36:07.804Z,82.30
2018-04-23T02:38:35.389Z,82.20
2018-04-23T02:41:03.115Z,81.90
2018-04-23T02:43:31.441Z,82.20
2018-04-23T02:45:58.948Z,82.20
2018-04-23T02:48:26.587Z,82.30
2018-04-23T02:50:54.188Z,82.60
2018-04-23T02:53:22.598Z,82.50
2018-04-23T02:55:50.160Z,82.40
2018-04-23T02:58:17.797Z,82.20
2018-04-23T03:00:45.391Z,82.30
2018-04-23T03:03:13.024Z,82.20
2018-04-23T03:05:40.600Z,82.30
2018-04-23T03:08:08.238Z,82.80
2018-04-23T03:10:35.813Z,83.50
2018-04-23T03:13:03.447Z,83.20
2018-04-23T03:15:31.033Z,83.20
2018-04-23T03:17:58.589Z,83.60
2018-04-23T03:20:26.188Z,83.80
2018-04-23T03:22:53.731Z,83.90
2018-04-23T03:25:21.357Z,84.50
2018-04-23T03:27:48.955Z,84.40
2018-04-23T03:30:16.520Z,84.70
2018-04-23T03:32:44.098Z,84.80
2018-04-23T03:35:11.734Z,84.80
2018-04-23T03:37:39.326Z,84.80
2018-04-23T03:40:06.956Z,85.00
2018-04-23T03:42:34.577Z,84.90
2018-04-23T03:45:02.952Z,85.50
2018-04-23T03:47:31.309Z,85.20
2018-04-23T03:49:58.920Z,85.30
2018-04-23T03:52:26.490Z,85.40
2018-04-23T03:54:54.102Z,85.40
2018-04-23T03:57:21.651Z,85.60
2018-04-23T03:59:49.159Z,86.00
2018-04-23T04:02:17.491Z,86.00
2018-04-23T04:04:45.052Z,86.00
2018-04-23T04:07:13.239Z,85.90
2018-04-23T04:09:40.796Z,86.10
2018-04-23T04:12:21.700Z,86.20
2018-04-23T04:15:01.069Z,86.20
2018-04-23T04:17:37.332Z,86.30
2018-04-23T04:20:04.979Z,86.30
2018-04-23T04:22:32.619Z,86.40
2018-04-23T04:25:00.171Z,86.50
2018-04-23T04:27:27.765Z,86.30
2018-04-23T04:29:55.356Z,86.40
2018-04-23T04:32:23.889Z,86.20
2018-04-23T04:34:51.487Z,86.50
2018-04-23T04:37:19.119Z,86.40
2018-04-23T04:39:46.699Z,86.40
2018-04-23T04:42:14.326Z,86.60
2018-04-23T04:44:41.947Z,86.30
2018-04-23T04:47:09.629Z,86.40
2018-04-23T04:49:37.214Z,85.80
2018-04-23T04:52:04.888Z,85.60
2018-04-23T04:54:32.434Z,85.60
2018-04-23T04:57:00.755Z,85.00
2018-04-23T04:59:28.339Z,85.70
2018-04-23T05:01:56.768Z,84.70
2018-04-23T05:04:24.327Z,84.60
2018-04-23T05:06:52.032Z,83.80
2018-04-23T05:09:20.439Z,83.70
2018-04-23T05:11:47.997Z,83.70
2018-04-23T05:14:15.633Z,84.30
2018-04-23T05:16:43.259Z,83.50
2018-04-23T05:19:10.935Z,83.30
2018-04-23T05:21:38.487Z,83.70
2018-04-23T05:24:06.079Z,83.60
2018-04-23T05:26:33.632Z,83.60
2018-04-23T05:29:01.261Z,83.60
2018-04-23T05:31:28.917Z,82.40
2018-04-23T05:33:56.625Z,81.60
2018-04-23T05:36:24.201Z,81.10
2018-04-23T05:38:52.581Z,81.30
2018-04-23T05:41:20.162Z,81.30
2018-04-23T05:43:47.755Z,80.40
2018-04-23T05:46:15.298Z,80.00
2018-04-23T05:48:42.883Z,80.30
2018-04-23T05:51:10.535Z,79.20
2018-04-23T05:53:38.043Z,79.70
2018-04-23T05:56:06.435Z,80.20
2018-04-23T05:58:33.993Z,80.10
2018-04-23T06:01:01.595Z,80.70
2018-04-23T06:03:29.898Z,80.70
2018-04-23T06:05:57.584Z,80.60
2018-04-23T06:08:25.265Z,79.70
2018-04-23T06:10:52.868Z,79.80
2018-04-23T06:13:20.465Z,80.00
2018-04-23T06:15:48.122Z,80.10
2018-04-23T06:18:16.535Z,78.50
2018-04-23T06:20:44.196Z,78.40
2018-04-23T06:23:11.827Z,79.20
2018-04-23T06:25:40.303Z,78.40
2018-04-23T06:28:07.932Z,78.30
2018-04-23T06:30:35.647Z,78.20
2018-04-23T06:33:03.358Z,78.20
2018-04-23T06:35:30.897Z,78.60
2018-04-23T06:37:58.584Z,78.20
2018-04-23T06:40:26.275Z,78.40
2018-04-23T06:42:54.674Z,78.90
2018-04-23T06:45:22.235Z,78.70
2018-04-23T06:47:49.894Z,80.10
2018-04-23T06:50:17.452Z,79.30
2018-04-23T06:52:45.037Z,79.20
2018-04-23T06:55:12.739Z,77.80
2018-04-23T06:57:40.384Z,76.90
2018-04-23T07:00:07.929Z,77.30
2018-04-23T07:02:35.616Z,77.80
2018-04-23T07:05:04.047Z,78.30
2018-04-23T07:07:31.723Z,78.20
2018-04-23T07:09:59.331Z,79.40
2018-04-23T07:12:27.693Z,79.80
2018-04-23T07:14:55.402Z,79.70
2018-04-23T07:17:22.969Z,79.80
2018-04-23T07:19:50.612Z,80.30
2018-04-23T07:22:18.163Z,80.80
2018-04-23T07:24:45.768Z,79.40
2018-04-23T07:27:13.340Z,79.40
2018-04-23T07:29:40.909Z,79.20
2018-04-23T07:32:08.520Z,79.50
2018-04-23T07:34:36.136Z,78.80
2018-04-23T07:37:03.696Z,78.00
2018-04-23T07:39:31.319Z,76.90
2018-04-23T07:41:58.910Z,75.40
2018-04-23T07:44:26.615Z,75.00
2018-04-23T07:46:54.332Z,72.10
2018-04-23T07:49:21.939Z,70.00
2018-04-23T07:51:49.567Z,71.40
2018-04-23T07:54:17.287Z,70.70
2018-04-23T07:56:44.911Z,70.80
2018-04-23T07:59:12.489Z,66.40
2018-04-23T08:01:40.944Z,65.20
2018-04-23T08:04:08.628Z,65.00
2018-04-23T08:06:37.768Z,63.10
2018-04-23T08:09:07.400Z,63.00
2018-04-23T08:11:35.107Z,61.60
2018-04-23T08:14:02.852Z,62.50
2018-04-23T08:16:30.457Z,61.50
2018-04-23T08:18:58.229Z,61.20
2018-04-23T08:21:26.326Z,59.60
2018-04-23T08:23:54.062Z,58.70
2018-04-23T08:26:21.821Z,58.30
2018-04-23T08:28:49.605Z,58.00
2018-04-23T08:31:17.319Z,57.50
2018-04-23T08:33:45.068Z,56.80
2018-04-23T08:36:12.873Z,56.90
2018-04-23T08:38:40.520Z,57.60
2018-04-23T08:41:08.183Z,56.60
2018-04-23T08:43:35.874Z,56.60
2018-04-23T08:46:03.506Z,58.20
2018-04-23T08:48:31.171Z,57.70
2018-04-23T08:50:58.914Z,57.20
2018-04-23T08:53:26.658Z,57.10
2018-04-23T08:55:54.431Z,55.30
2018-04-23T08:58:22.167Z,55.80
2018-04-23T09:00:49.884Z,55.70
2018-04-23T09:03:17.632Z,54.90
2018-04-23T09:05:45.309Z,54.50
2018-04-23T09:08:13.673Z,54.10
2018-04-23T09:10:41.414Z,54.00
2018-04-23T09:13:09.258Z,54.50
2018-04-23T09:15:37.012Z,53.10
2018-04-23T09:18:04.665Z,52.20
2018-04-23T09:20:32.331Z,52.60
2018-04-23T09:23:00.069Z,51.00
2018-04-23T09:25:28.595Z,52.00
2018-04-23T09:27:56.308Z,51.90
2018-04-23T09:30:24.923Z,50.50
2018-04-23T09:32:52.488Z,50.40
2018-04-23T09:35:20.161Z,48.80
2018-04-23T09:37:47.845Z,48.20
2018-04-23T09:40:15.520Z,48.80
2018-04-23T09:42:43.280Z,49.00
2018-04-23T09:45:10.968Z,46.70
2018-04-23T09:47:38.744Z,48.00
2018-04-23T09:50:06.555Z,46.40
2018-04-23T09:52:35.226Z,46.10
2018-04-23T09:55:03.015Z,45.50
2018-04-23T09:57:30.689Z,45.00
2018-04-23T09:59:59.035Z,44.30
2018-04-23T10:02:26.717Z,44.20
2018-04-23T10:04:54.431Z,43.40
2018-04-23T10:07:22.070Z,41.80
2018-04-23T10:09:49.684Z,42.70
2018-04-23T10:12:17.257Z,40.50
2018-04-23T10:14:44.896Z,42.40
2018-04-23T10:17:13.242Z,43.70
2018-04-23T10:19:41.767Z,39.70
2018-04-23T10:22:09.464Z,39.70
2018-04-23T10:24:37.227Z,40.50
2018-04-23T10:27:05.101Z,40.60
2018-04-23T10:29:32.895Z,38.40
2018-04-23T10:32:00.623Z,37.00
2018-04-23T10:34:28.335Z,35.00
2018-04-23T10:36:56.053Z,34.60
2018-04-23T10:39:23.740Z,34.90
2018-04-23T10:41:51.365Z,34.40
2018-04-23T10:44:19.030Z,32.80
2018-04-23T10:46:46.735Z,33.20
2018-04-23T10:49:14.458Z,34.50
2018-04-23T10:51:42.288Z,33.60
2018-04-23T10:54:09.979Z,33.00
2018-04-23T10:56:37.637Z,33.50
2018-04-23T10:59:05.279Z,32.10
2018-04-23T11:01:33.037Z,32.30
2018-04-23T11:04:00.775Z,32.40
2018-04-23T11:06:29.205Z,31.60
2018-04-23T11:08:56.943Z,31.50
2018-04-23T11:11:24.563Z,30.60
2018-04-23T11:13:52.231Z,32.60
2018-04-23T11:16:20.055Z,33.60
2018-04-23T11:18:47.735Z,32.60
2018-04-23T11:21:15.331Z,31.60
2018-04-23T11:23:42.928Z,32.70
2018-04-23T11:26:10.670Z,31.90
2018-04-23T11:28:38.481Z,31.20
2018-04-23T11:31:06.095Z,31.40
2018-04-23T11:33:33.686Z,32.60
2018-04-23T11:36:01.391Z,32.60
2018-04-23T11:38:29.004Z,32.90
2018-04-23T11:40:57.428Z,34.00
2018-04-23T11:43:25.143Z,33.90
2018-04-23T11:45:52.815Z,33.80
2018-04-23T11:48:20.509Z,35.00
2018-04-23T11:50:49.041Z,33.90
2018-04-23T11:53:16.740Z,33.90
2018-04-23T11:55:44.508Z,32.90
2018-04-23T11:58:13.035Z,33.10
2018-04-23T12:00:42.197Z,30.50
2018-04-23T12:03:10.035Z,30.40
2018-04-23T12:05:37.739Z,30.80
2018-04-23T12:08:05.357Z,30.70
2018-04-23T12:10:33.065Z,31.00
2018-04-23T12:13:01.356Z,33.50
2018-04-23T12:15:29.040Z,32.70
2018-04-23T12:17:56.739Z,29.90
2018-04-23T12:20:24.304Z,29.90
2018-04-23T12:22:51.823Z,30.30
2018-04-23T12:25:19.465Z,30.20
2018-04-23T12:27:46.983Z,29.80
2018-04-23T12:30:14.561Z,30.00
2018-04-23T12:32:42.128Z,29.60
2018-04-23T12:35:09.707Z,29.20
2018-04-23T12:37:37.250Z,30.00
2018-04-23T12:40:04.823Z,28.90
2018-04-23T12:42:32.341Z,28.70
2018-04-23T12:44:59.907Z,28.80
2018-04-23T12:47:27.420Z,28.60
2018-04-23T12:49:54.993Z,29.10
2018-04-23T12:52:22.597Z,29.40
2018-04-23T12:54:50.196Z,29.60
2018-04-23T12:57:17.749Z,28.40
2018-04-23T12:59:45.337Z,30.00
2018-04-23T13:02:12.891Z,28.10
2018-04-23T13:04:40.467Z,28.10
2018-04-23T13:07:08.007Z,29.10
2018-04-23T13:09:35.527Z,29.10
2018-04-23T13:12:03.133Z,28.50
2018-04-23T13:14:30.735Z,27.80
2018-04-23T13:16:58.379Z,26.70
2018-04-23T13:19:25.925Z,27.00
2018-04-23T13:21:53.533Z,27.30
2018-04-23T13:24:21.099Z,29.00
2018-04-23T13:26:49.418Z,28.30
2018-04-23T13:29:16.933Z,28.40
2018-04-23T13:31:45.307Z,27.60
2018-04-23T13:34:12.897Z,27.60
2018-04-23T13:36:40.495Z,27.60
2018-04-23T13:39:08.031Z,26.70
2018-04-23T13:41:35.573Z,27.80
2018-04-23T13:44:03.196Z,28.90
2018-04-23T13:46:30.709Z,27.40
2018-04-23T13:48:58.275Z,28.20
2018-04-23T13:51:25.773Z,28.70
2018-04-23T13:53:53.341Z,28.00
2018-04-23T13:56:20.855Z,28.10
2018-04-23T13:58:48.415Z,28.20
2018-04-23T14:01:15.963Z,27.10
2018-04-23T14:03:43.503Z,27.90
2018-04-23T14:06:11.085Z,28.10
2018-04-23T14:08:38.605Z,28.50
2018-04-23T14:11:06.218Z,28.10
2018-04-23T14:13:33.738Z,28.00
2018-04-23T14:16:01.285Z,28.70
2018-04-23T14:18:29.586Z,27.90
2018-04-23T14:20:57.174Z,27.90
2018-04-23T14:23:24.693Z,27.80
2018-04-23T14:25:53.035Z,28.20
2018-04-23T14:28:20.583Z,28.20
2018-04-23T14:30:48.174Z,27.70
2018-04-23T14:33:15.711Z,28.30
2018-04-23T14:35:43.262Z,28.60
2018-04-23T14:38:10.806Z,27.80
2018-04-23T14:40:39.076Z,28.70
2018-04-23T14:43:06.631Z,28.20
2018-04-23T14:45:34.241Z,28.20
2018-04-23T14:48:01.833Z,28.40
2018-04-23T14:50:29.397Z,28.20
2018-04-23T14:52:56.982Z,28.60
2018-04-23T14:55:24.505Z,27.40
2018-04-23T14:57:52.859Z,28.50
2018-04-23T15:00:20.423Z,28.50
2018-04-23T15:02:48.076Z,27.50
2018-04-23T15:05:16.421Z,28.80
2018-04-23T15:07:44.066Z,28.80
2018-04-23T15:10:11.633Z,29.10
2018-04-23T15:12:39.205Z,29.00
2018-04-23T15:15:06.707Z,30.20
2018-04-23T15:17:34.277Z,31.20
2018-04-23T15:20:02.569Z,31.20
2018-04-23T15:22:30.864Z,32.50
2018-04-23T15:24:58.420Z,32.50
2018-04-23T15:27:25.944Z,30.50
2018-04-23T15:29:54.297Z,32.50
2018-04-23T15:32:21.799Z,32.50
2018-04-23T15:34:49.378Z,35.10
2018-04-23T15:37:16.878Z,36.50
2018-04-23T15:39:44.425Z,36.10
2018-04-23T15:42:11.993Z,37.80
2018-04-23T15:44:39.560Z,38.50
2018-04-23T15:47:07.108Z,38.60
2018-04-23T15:49:34.673Z,39.60
2018-04-23T15:52:02.230Z,39.70
2018-04-23T15:54:29.868Z,40.80
2018-04-23T15:56:57.373Z,40.70
2018-04-23T15:59:25.708Z,41.70
2018-04-23T16:01:53.245Z,41.70
2018-04-23T16:04:20.771Z,42.60
2018-04-23T16:06:48.345Z,42.80
2018-04-23T16:09:15.896Z,43.00
2018-04-23T16:11:43.496Z,43.40
2018-04-23T16:14:11.068Z,41.90
2018-04-23T16:16:38.622Z,42.20
2018-04-23T16:19:06.141Z,42.70
2018-04-23T16:21:34.471Z,43.00
2018-04-23T16:24:01.988Z,42.90
2018-04-23T16:26:30.303Z,41.20
2018-04-23T16:28:57.804Z,41.20
2018-04-23T16:31:26.117Z,41.50
2018-04-23T16:33:53.633Z,41.50
2018-04-23T16:36:21.215Z,42.10
2018-04-23T16:38:48.748Z,42.70
2018-04-23T16:41:16.282Z,42.70
2018-04-23T16:43:43.818Z,43.00
2018-04-23T16:46:11.348Z,43.70
2018-04-23T16:48:39.655Z,44.10
2018-04-23T16:51:07.191Z,44.10
2018-04-23T16:53:34.730Z,44.70
2018-04-23T16:56:03.015Z,44.40
2018-04-23T16:58:31.357Z,45.40
2018-04-23T17:00:58.867Z,45.40
2018-04-23T17:03:27.183Z,46.50
2018-04-23T17:05:54.704Z,46.50
2018-04-23T17:08:22.280Z,46.90
2018-04-23T17:10:50.608Z,48.00
2018-04-23T17:13:18.224Z,48.00
2018-04-23T17:15:45.783Z,48.80
2018-04-23T17:18:13.336Z,49.10
2018-04-23T17:20:40.851Z,49.40
2018-04-23T17:23:08.363Z,49.90
2018-04-23T17:25:35.910Z,49.80
2018-04-23T17:28:03.429Z,50.10
2018-04-23T17:30:30.987Z,50.30
2018-04-23T17:32:58.519Z,50.30
2018-04-23T17:35:26.056Z,50.60
2018-04-23T17:37:53.584Z,50.80
2018-04-23T17:40:21.123Z,51.00
2018-04-23T17:42:48.676Z,51.20
2018-04-23T17:45:16.226Z,51.40
2018-04-23T17:47:43.758Z,51.50
2018-04-23T17:50:11.315Z,51.50
2018-04-23T17:52:38.829Z,51.70
2018-04-23T17:55:06.419Z,52.00
2018-04-23T17:57:33.939Z,52.70
2018-04-23T18:00:01.515Z,52.10
2018-04-23T18:02:29.809Z,52.40
2018-04-23T18:05:00.328Z,52.20
2018-04-23T18:07:28.647Z,51.90
2018-04-23T18:09:56.190Z,51.90
2018-04-23T18:12:23.697Z,52.20
2018-04-23T18:14:51.297Z,52.10
2018-04-23T18:17:18.816Z,53.20
2018-04-23T18:19:46.385Z,53.20
2018-04-23T18:22:13.921Z,52.90
2018-04-23T18:24:42.003Z,52.70
2018-04-23T18:27:09.585Z,52.50
2018-04-23T18:29:37.137Z,52.80
2018-04-23T18:32:04.707Z,52.80
2018-04-23T18:34:32.285Z,52.00
2018-04-23T18:37:00.617Z,51.00
2018-04-23T18:39:28.158Z,50.90
2018-04-23T18:41:55.770Z,51.30
2018-04-23T18:44:23.303Z,51.10
2018-04-23T18:46:50.937Z,50.90
2018-04-23T18:49:18.487Z,50.10
2018-04-23T18:51:45.994Z,50.20
2018-04-23T18:54:13.568Z,50.20
2018-04-23T18:56:41.873Z,51.10
2018-04-23T18:59:09.427Z,51.10
2018-04-23T19:01:36.943Z,50.70
2018-04-23T19:04:04.511Z,52.50
2018-04-23T19:06:32.045Z,53.10
2018-04-23T19:08:59.612Z,53.10
2018-04-23T19:11:27.147Z,53.60
2018-04-23T19:13:54.698Z,53.60
2018-04-23T19:16:22.229Z,53.70
2018-04-23T19:18:50.608Z,54.80
2018-04-23T19:21:18.926Z,55.70
2018-04-23T19:23:46.437Z,55.70
2018-04-23T19:26:14.011Z,56.10
2018-04-23T19:28:41.544Z,56.40
2018-04-23T19:31:09.098Z,56.80
2018-04-23T19:33:36.661Z,56.80
2018-04-23T19:36:04.365Z,57.10
2018-04-23T19:38:31.890Z,56.50
2018-04-23T19:41:00.201Z,57.40
2018-04-23T19:43:27.746Z,57.30
2018-04-23T19:45:56.130Z,55.60
2018-04-23T19:48:23.582Z,55.60
2018-04-23T19:50:51.869Z,56.50
2018-04-23T19:53:19.402Z,56.50
2018-04-23T19:55:46.934Z,57.50
2018-04-23T19:58:14.496Z,57.90
2018-04-23T20:00:42.022Z,58.30
2018-04-23T20:03:09.552Z,58.40
2018-04-23T20:05:37.850Z,58.40
2018-04-23T20:08:05.387Z,58.30
2018-04-23T20:10:33.670Z,59.50
2018-04-23T20:13:01.208Z,59.40
2018-04-23T20:15:28.729Z,59.30
2018-04-23T20:17:56.294Z,59.00
2018-04-23T20:20:24.588Z,59.40
2018-04-23T20:22:52.095Z,59.40
2018-04-23T20:25:19.626Z,59.70
2018-04-23T20:27:47.130Z,59.80
2018-04-23T20:30:14.707Z,60.50
2018-04-23T20:32:42.225Z,60.60
2018-04-23T20:35:09.789Z,60.10
2018-04-23T20:37:37.317Z,60.70
2018-04-23T20:40:06.178Z,60.10
2018-04-23T20:42:33.692Z,60.30
2018-04-23T20:45:01.248Z,61.50
2018-04-23T20:47:28.773Z,61.40
2018-04-23T20:49:56.360Z,62.10
2018-04-23T20:52:24.637Z,62.20
2018-04-23T20:54:52.915Z,63.70
2018-04-23T20:57:21.248Z,63.60
2018-04-23T20:59:48.740Z,63.50
2018-04-23T21:02:16.300Z,63.40
2018-04-23T21:04:44.591Z,64.00
2018-04-23T21:07:12.864Z,63.90
2018-04-23T21:09:41.144Z,64.40
2018-04-23T21:12:08.718Z,64.40
2018-04-23T21:14:36.238Z,65.80
2018-04-23T21:17:04.162Z,66.10
2018-04-23T21:19:31.704Z,65.50
2018-04-23T21:21:59.254Z,66.10
2018-04-23T21:24:26.774Z,66.70
2018-04-23T21:26:54.330Z,68.40
2018-04-23T21:29:21.858Z,68.30
2018-04-23T21:31:49.414Z,68.80
2018-04-23T21:34:16.973Z,69.30
2018-04-23T21:36:44.492Z,70.30
2018-04-23T21:39:12.815Z,69.90
2018-04-23T21:41:40.360Z,69.80
2018-04-23T21:44:07.912Z,69.60
2018-04-23T21:46:35.434Z,69.40
2018-04-23T21:49:04.692Z,69.70
2018-04-23T21:51:32.232Z,70.00
2018-04-23T21:53:59.780Z,70.20
2018-04-23T21:56:27.291Z,70.40
2018-04-23T21:58:54.884Z,70.60
2018-04-23T22:01:22.379Z,71.10
2018-04-23T22:03:49.953Z,70.90
2018-04-23T22:06:17.472Z,71.20
2018-04-23T22:08:45.040Z,70.00
2018-04-23T22:11:13.313Z,67.10
2018-04-23T22:13:40.864Z,67.00
2018-04-23T22:16:08.397Z,67.60
2018-04-23T22:18:35.928Z,67.40
2018-04-23T22:21:03.495Z,65.70
2018-04-23T22:23:31.011Z,64.30
2018-04-23T22:25:58.563Z,64.20
2018-04-23T22:28:27.073Z,63.70
2018-04-23T22:30:54.611Z,63.70
2018-04-23T22:33:22.890Z,65.40
2018-04-23T22:35:51.207Z,65.00
2018-04-23T22:38:18.715Z,64.90
2018-04-23T22:40:46.249Z,67.20
2018-04-23T22:43:13.873Z,67.70
2018-04-23T22:45:41.429Z,69.70
2018-04-23T22:48:09.113Z,71.80
2018-04-23T22:50:37.019Z,71.30
2018-04-23T22:53:04.625Z,72.90
2018-04-23T22:55:34.566Z,74.60
2018-04-23T22:58:03.752Z,76.80
2018-04-23T23:00:31.429Z,79.20
2018-04-23T23:02:59.074Z,80.50
2018-04-23T23:05:28.118Z,81.40
2018-04-23T23:07:58.307Z,82.40
2018-04-23T23:10:26.927Z,83.80
2018-04-23T23:12:55.556Z,85.60
2018-04-23T23:15:30.537Z,87.20
2018-04-23T23:17:58.917Z,87.40
2018-04-23T23:20:26.509Z,87.40
2018-04-23T23:22:54.143Z,87.30
2018-04-23T23:25:22.040Z,87.90
2018-04-23T23:27:50.816Z,88.70
2018-04-23T23:30:20.719Z,87.50
2018-04-23T23:32:48.569Z,86.60
2018-04-23T23:35:16.456Z,86.60
2018-04-23T23:37:44.308Z,86.70
2018-04-23T23:40:13.096Z,87.50
2018-04-23T23:42:41.590Z,86.20
2018-04-23T23:45:10.098Z,86.60
2018-04-23T23:47:37.802Z,86.60
2018-04-23T23:50:05.774Z,86.60
2018-04-23T23:52:34.452Z,88.00
2018-04-23T23:55:02.253Z,87.90
2018-04-23T23:57:30.078Z,87.40
2018-04-23T23:59:58.011Z,86.60
